罗盘
风向 的 珀斯機場 3/21
风: 0 kt, 0 beaufort


改变
0 1.000 2.000 3.000 4.000 5.000
CAVOK
METAR YPPH 102330Z 00000KT CAVOK 04/03 Q1027 WEATHER 1 CORRECTED FROM BR AUTO WEATHER 2 CORRECTED FROM NOSIG AUTO RECENT WEATHER 1 CORRECTED FROM NOSIG AUTO RECENT WEATHER 2 CORRECTED FROM

METAR 珀斯機場 - YPPH/PER

珀斯機場是Perth,澳大利亚中的大型机场。 该机场有2条跑道: 3/21 和 6/24. 该领域的国际民航组织标志是YPPH 它的国际航空运输协会代码是PER.

这份报告是针对2022年8月11日 07:30, 当地时间在珀斯機場进行的。

机场观察

可变方向的风很小或没有风。

天气为CAVOK。这意味着在5.000 ft或MSA(最低安全高度)以下(以较高者为准)以下没有云。这也意味着没有观测到积雨云或高耸的积云,可见度为10 km 或者更多或更高。此外,不会有雾,降雨或其他重要天气。

温度和风寒是4 °C。 露点为3 °C,相对湿度为93%。 海平面上的气压为1027 hPa (QNH)。

白天

今天,太阳从06:57升起,在17:45降落。 这适用于珀斯機場,世界夏令时可能有所不同。 当地时间与世界标准时间之间的时差为+8 小时。 夏令时目前正在进行中。

公司介绍

我们没有关于这个机场的公司信息。

体会

到Vliegles.nl去找飞行课程,跳伞和其他飞行体验。 浏览页面,了解珀斯機場附近所有可用的活动。 你也可以使用搜索功能来寻找你所在地附近的特定飞行课程、跳伞或其他飞行体验。

跑道

Id 标题 侧风 逆风 侧风 %
3/21 016°-196°
6/24 059°-239°

逆风成分最大的方向会被突出显示,并用于横风计算。 这并不一定意味着这个方向在使用。

温度 & 天气

温度 4 °C
露点 3 °C
相对湿度 93%
Kp-index 2  

白天

日出
06:57
中午
12:21
日落
17:45

小工具

你想在你的网站上有一个关于珀斯機場的当前航空天气(METAR)的小部件吗?

</> 显示HTML代码

我们和第三方通过cookies跟踪您在我们网站上的上网行为。如果您继续,我们认为您同意我们的cookie政策。 了解更多